Time;durP1;ratioP1;P1;durP2;ratioP2;P2;SDS_P1;SDS_P2;PMS_P1;PMS_P2;Temp;Humidity;BMP_temperature;BMP_pressure;BME280_temperature;BME280_humidity;BME280_pressure;Samples;Min_cycle;Max_cycle;Signal;HPM_P1;HPM_P2
2021/04/15 00:00:47;;;;;;;8.20;3.33;;;7.00;99.90;;;;;;5066439;28;20085;-63
2021/04/15 00:03:22;;;;;;;2.88;2.67;;;7.20;99.90;;;;;;5068966;28;20047;-63
2021/04/15 00:05:48;;;;;;;3.75;3.13;;;7.20;99.90;;;;;;5070904;28;20028;-63
2021/04/15 00:08:16;;;;;;;3.90;3.30;;;7.20;99.90;;;;;;5069214;28;20032;-62
2021/04/15 00:10:45;;;;;;;3.38;3.00;;;7.20;99.90;;;;;;5063992;28;20099;-63
2021/04/15 00:13:18;;;;;;;3.88;3.47;;;7.10;99.90;;;;;;5063473;28;20029;-63
2021/04/15 00:15:44;;;;;;;3.95;3.47;;;7.00;99.90;;;;;;5063394;28;20037;-63
2021/04/15 00:18:10;;;;;;;3.63;3.33;;;6.70;99.90;;;;;;5066100;28;20033;-62
2021/04/15 00:20:35;;;;;;;5.50;5.00;;;6.70;99.90;;;;;;5071065;28;20023;-63
2021/04/15 00:23:01;;;;;;;9.43;6.50;;;6.50;99.90;;;;;;5071381;28;20029;-63
2021/04/15 00:25:27;;;;;;;6.90;6.22;;;6.40;99.90;;;;;;5065443;28;20023;-63
2021/04/15 00:27:53;;;;;;;7.88;7.07;;;6.40;99.90;;;;;;5072844;28;20024;-63
2021/04/15 00:30:20;;;;;;;6.60;5.47;;;6.40;99.90;;;;;;5065504;28;20029;-63
2021/04/15 00:32:46;;;;;;;8.15;6.20;;;6.40;99.90;;;;;;5074042;28;20024;-63
2021/04/15 00:35:12;;;;;;;6.28;5.38;;;6.30;99.90;;;;;;5067321;28;20540;-63
2021/04/15 00:37:37;;;;;;;5.68;5.10;;;6.10;99.90;;;;;;5075206;28;20025;-62
2021/04/15 00:40:05;;;;;;;5.10;4.35;;;6.20;99.90;;;;;;5068701;28;20544;-63
2021/04/15 00:42:31;;;;;;;4.43;4.03;;;6.20;99.90;;;;;;5076737;28;20413;-63
2021/04/15 00:45:07;;;;;;;6.10;4.80;;;6.30;99.90;;;;;;5069504;28;20033;-63
2021/04/15 00:47:33;;;;;;;5.43;4.93;;;6.30;99.90;;;;;;5067259;28;20107;-63
2021/04/15 00:50:14;;;;;;;5.13;4.63;;;6.10;99.90;;;;;;5079870;28;20039;-63
2021/04/15 00:52:47;;;;;;;5.72;4.38;;;6.10;99.90;;;;;;5068103;28;20074;-63
2021/04/15 00:55:19;;;;;;;6.93;4.18;;;6.10;99.90;;;;;;5069687;28;20040;-62
2021/04/15 00:57:48;;;;;;;5.07;4.57;;;6.10;99.90;;;;;;5074534;28;20614;-63
2021/04/15 01:00:17;;;;;;;5.40;4.88;;;5.90;99.90;;;;;;5065619;28;20032;-63
2021/04/15 01:02:43;;;;;;;5.97;5.15;;;5.70;99.90;;;;;;5068801;28;20032;-63
2021/04/15 01:05:27;;;;;;;5.43;4.97;;;5.80;99.90;;;;;;5067704;28;20028;-62
2021/04/15 01:07:53;;;;;;;5.65;4.88;;;5.80;99.90;;;;;;5067857;28;20539;-63
2021/04/15 01:10:21;;;;;;;5.65;4.97;;;5.80;99.90;;;;;;5073266;28;20020;-63
2021/04/15 01:13:14;;;;;;;6.03;5.13;;;5.70;99.90;;;;;;5067242;28;20056;-62
2021/04/15 01:15:59;;;;;;;6.30;5.05;;;5.70;99.90;;;;;;5065335;28;20453;-63
2021/04/15 01:21:45;;;;;;;4.75;4.35;;;5.70;99.90;;;;;;5868185;23;20059;-63
2021/04/15 01:24:20;;;;;;;5.93;5.32;;;5.60;99.90;;;;;;4976508;28;20027;-62
2021/04/15 01:26:52;;;;;;;7.20;5.40;;;5.30;99.90;;;;;;4981550;28;20106;-63
2021/04/15 01:29:33;;;;;;;6.18;5.55;;;5.30;99.90;;;;;;4975122;28;20375;-64
2021/04/15 01:32:02;;;;;;;6.70;5.15;;;5.20;99.90;;;;;;4981189;28;20027;-63
2021/04/15 01:34:40;;;;;;;10.20;5.75;;;5.30;99.90;;;;;;4975055;28;20445;-63
2021/04/15 01:37:09;;;;;;;7.30;6.00;;;5.30;99.90;;;;;;4980906;28;20035;-62
2021/04/15 01:39:42;;;;;;;6.32;5.72;;;5.30;99.90;;;;;;4974996;28;20023;-62
2021/04/15 01:42:13;;;;;;;5.90;5.20;;;5.30;99.90;;;;;;4975623;28;20042;-62
2021/04/15 01:44:56;;;;;;;8.40;5.90;;;5.40;99.90;;;;;;4985967;28;20019;-65
2021/04/15 01:47:36;;;;;;;5.30;4.90;;;5.30;99.90;;;;;;4978409;28;20441;-63
2021/04/15 01:50:10;;;;;;;5.85;5.00;;;5.30;99.90;;;;;;4985193;28;20457;-65
2021/04/15 01:52:37;;;;;;;8.27;5.70;;;5.30;99.90;;;;;;4975925;28;20031;-62
2021/04/15 01:55:16;;;;;;;5.95;5.40;;;5.20;99.90;;;;;;4977216;28;20504;-63
2021/04/15 01:57:58;;;;;;;6.53;5.95;;;5.10;99.90;;;;;;4976553;28;20031;-65
2021/04/15 02:00:27;;;;;;;9.00;5.70;;;4.90;99.90;;;;;;4979857;28;20022;-63
2021/04/15 02:02:58;;;;;;;11.68;6.47;;;4.90;99.90;;;;;;4974656;28;20089;-64
2021/04/15 02:05:28;;;;;;;8.73;6.55;;;4.70;99.90;;;;;;4979781;28;20493;-63
2021/04/15 02:08:04;;;;;;;9.60;6.93;;;4.80;99.90;;;;;;4974357;28;20031;-64
2021/04/15 02:10:32;;;;;;;8.25;6.97;;;4.80;99.90;;;;;;4980967;28;20018;-63
2021/04/15 02:13:01;;;;;;;13.70;6.88;;;4.90;99.90;;;;;;4973673;28;20048;-63
2021/04/15 02:15:41;;;;;;;6.85;6.13;;;4.90;99.90;;;;;;4980070;28;20124;-64
2021/04/15 02:18:07;;;;;;;13.23;5.75;;;4.90;99.90;;;;;;4972542;28;20099;-65
2021/04/15 02:20:34;;;;;;;5.88;5.13;;;4.80;99.90;;;;;;4980086;28;20033;-65
2021/04/15 02:23:14;;;;;;;6.88;6.25;;;4.70;99.90;;;;;;4973298;28;20065;-63
2021/04/15 02:25:55;;;;;;;6.55;5.57;;;4.60;99.90;;;;;;4981643;28;20027;-63
2021/04/15 02:28:27;;;;;;;6.20;5.60;;;4.60;99.90;;;;;;4952440;29;20408;-63
2021/04/15 02:31:06;;;;;;;9.93;6.60;;;4.60;99.90;;;;;;4980758;28;20034;-63
2021/04/15 02:33:41;;;;;;;8.43;6.93;;;4.70;99.90;;;;;;4971353;28;20037;-63
2021/04/15 02:36:08;;;;;;;8.23;6.80;;;4.20;99.90;;;;;;4981354;28;20031;-62
2021/04/15 02:38:43;;;;;;;10.07;7.32;;;4.30;99.90;;;;;;4971410;28;20506;-65
2021/04/15 02:41:11;;;;;;;9.38;7.55;;;4.20;99.90;;;;;;4979175;28;20113;-63
2021/04/15 02:43:49;;;;;;;8.00;6.85;;;4.30;99.90;;;;;;4990549;28;20025;-63
2021/04/15 02:46:42;;;;;;;8.90;6.97;;;4.00;99.90;;;;;;4980822;28;20038;-63
2021/04/15 02:49:10;;;;;;;8.63;7.05;;;4.00;99.90;;;;;;4973399;28;20505;-63
2021/04/15 02:51:45;;;;;;;9.02;7.00;;;4.20;99.90;;;;;;4975600;28;20030;-63
2021/04/15 02:54:19;;;;;;;8.65;7.82;;;4.40;99.90;;;;;;4973699;28;20400;-63
2021/04/15 02:57:03;;;;;;;12.00;8.02;;;4.20;99.90;;;;;;4979864;28;20081;-63
2021/04/15 02:59:37;;;;;;;8.35;7.45;;;4.10;99.90;;;;;;4973732;28;20402;-63
2021/04/15 03:02:09;;;;;;;9.32;8.18;;;4.00;99.90;;;;;;4979644;28;20026;-63
2021/04/15 03:04:38;;;;;;;9.20;8.10;;;3.90;99.90;;;;;;4970398;28;20035;-63
2021/04/15 03:07:05;;;;;;;9.50;8.55;;;4.00;99.90;;;;;;4970405;28;20023;-63
2021/04/15 03:09:34;;;;;;;8.98;8.18;;;3.80;99.90;;;;;;4971047;28;20065;-63
2021/04/15 03:12:06;;;;;;;8.65;7.82;;;3.90;99.90;;;;;;4974256;28;20078;-63
2021/04/15 03:14:50;;;;;;;7.82;7.18;;;4.00;99.90;;;;;;4971733;28;20117;-63
2021/04/15 03:17:18;;;;;;;9.45;7.70;;;4.10;99.90;;;;;;4976440;28;20069;-63
2021/04/15 03:19:52;;;;;;;8.68;7.85;;;4.00;99.90;;;;;;4974552;28;20081;-62
2021/04/15 03:22:24;;;;;;;9.80;8.15;;;3.90;99.90;;;;;;4982317;28;20545;-63
2021/04/15 03:24:54;;;;;;;8.75;7.97;;;3.80;99.90;;;;;;4967082;28;20034;-63
2021/04/15 03:27:27;;;;;;;8.75;7.88;;;3.70;99.90;;;;;;4971307;28;20030;-62
2021/04/15 03:30:10;;;;;;;9.20;7.53;;;3.80;99.90;;;;;;4973100;28;20031;-63
2021/04/15 03:32:52;;;;;;;11.48;8.07;;;3.70;99.90;;;;;;4975343;28;20025;-63
2021/04/15 03:35:31;;;;;;;8.57;7.78;;;3.70;99.90;;;;;;4976781;28;20720;-62
2021/04/15 03:38:18;;;;;;;7.97;7.38;;;3.60;99.90;;;;;;4972352;28;20043;-62
2021/04/15 03:40:53;;;;;;;8.00;7.20;;;3.50;99.90;;;;;;4980392;28;20031;-62
2021/04/15 03:43:25;;;;;;;7.82;7.05;;;3.60;99.90;;;;;;4950781;28;20027;-63
2021/04/15 03:46:08;;;;;;;8.18;7.15;;;3.80;99.90;;;;;;4976396;28;20157;-63
2021/04/15 03:48:43;;;;;;;8.20;7.50;;;4.00;99.90;;;;;;4957501;28;20031;-62
2021/04/15 03:51:21;;;;;;;8.20;7.50;;;3.80;99.90;;;;;;4975920;28;20084;-62
2021/04/15 03:53:59;;;;;;;8.38;7.57;;;3.50;99.90;;;;;;4962587;28;20037;-62
2021/04/15 03:56:34;;;;;;;8.80;7.60;;;3.40;99.90;;;;;;4973903;28;20521;-62
2021/04/15 03:59:33;;;;;;;8.35;7.53;;;3.60;99.90;;;;;;4975200;28;20023;-63
2021/04/15 04:02:03;;;;;;;8.27;7.38;;;3.70;99.90;;;;;;4974260;28;20630;-62
2021/04/15 04:04:44;;;;;;;8.38;7.22;;;3.50;99.90;;;;;;4972212;28;20019;-62
2021/04/15 04:07:21;;;;;;;7.85;7.10;;;3.60;99.90;;;;;;4969598;28;20490;-63
2021/04/15 04:09:59;;;;;;;8.02;6.90;;;3.30;99.90;;;;;;4967099;28;20161;-63
2021/04/15 04:12:41;;;;;;;10.73;6.47;;;3.40;99.90;;;;;;4971072;28;20023;-63
2021/04/15 04:15:19;;;;;;;7.28;6.63;;;3.40;99.90;;;;;;4973786;28;20031;-63
2021/04/15 04:17:51;;;;;;;8.35;7.63;;;3.30;99.90;;;;;;4976714;28;20030;-62
2021/04/15 04:20:18;;;;;;;8.35;7.15;;;3.10;99.90;;;;;;4976123;28;20089;-63
2021/04/15 04:22:58;;;;;;;9.43;6.90;;;3.20;99.90;;;;;;4967341;28;20066;-63
2021/04/15 04:25:46;;;;;;;7.88;6.97;;;3.30;99.90;;;;;;4977693;28;20038;-63
2021/04/15 04:28:28;;;;;;;7.35;6.68;;;3.30;99.90;;;;;;4967196;28;20459;-63
2021/04/15 04:31:00;;;;;;;9.93;7.10;;;3.30;99.90;;;;;;4973170;28;20495;-63
2021/04/15 04:33:39;;;;;;;7.72;6.95;;;3.20;99.90;;;;;;4966800;28;20022;-64
2021/04/15 04:36:06;;;;;;;8.10;6.57;;;3.20;99.90;;;;;;4959223;28;20423;-62
2021/04/15 04:38:32;;;;;;;7.47;6.78;;;3.30;99.90;;;;;;4970730;28;20142;-64
2021/04/15 04:41:04;;;;;;;6.88;6.20;;;3.30;99.90;;;;;;4974323;28;20109;-64
2021/04/15 04:43:39;;;;;;;7.13;6.43;;;3.30;99.90;;;;;;4960855;28;20515;-64
2021/04/15 04:46:40;;;;;;;7.47;6.10;;;3.10;99.90;;;;;;4965344;28;20055;-62
2021/04/15 04:49:12;;;;;;;6.47;5.88;;;3.30;99.90;;;;;;4961236;28;20026;-62
2021/04/15 04:51:49;;;;;;;6.22;5.68;;;3.20;99.90;;;;;;4971656;28;20070;-62
2021/04/15 04:54:17;;;;;;;6.40;5.80;;;3.10;99.90;;;;;;4971339;28;20042;-63
2021/04/15 04:56:48;;;;;;;6.78;6.18;;;3.00;99.90;;;;;;4978811;28;20521;-63
2021/04/15 04:59:20;;;;;;;8.15;6.78;;;3.00;99.90;;;;;;4974536;28;20018;-63
2021/04/15 05:01:46;;;;;;;6.75;6.05;;;2.80;99.90;;;;;;4978729;28;20054;-63
2021/04/15 05:04:12;;;;;;;8.88;5.78;;;2.90;99.90;;;;;;4975682;28;20038;-64
2021/04/15 05:06:42;;;;;;;6.82;5.63;;;2.90;99.90;;;;;;4979812;28;20521;-63
2021/04/15 05:09:31;;;;;;;7.32;5.95;;;3.00;99.90;;;;;;4978041;28;20478;-65
2021/04/15 05:11:58;;;;;;;7.18;6.15;;;2.70;99.90;;;;;;4956119;28;20052;-63
2021/04/15 05:14:26;;;;;;;6.72;6.05;;;2.40;99.90;;;;;;4958837;28;20039;-64
2021/04/15 05:17:05;;;;;;;9.73;6.35;;;2.50;99.90;;;;;;4959321;28;20522;-63
2021/04/15 05:19:34;;;;;;;7.90;6.53;;;2.70;99.90;;;;;;4958643;28;20399;-64
2021/04/15 05:22:01;;;;;;;9.85;7.22;;;2.70;99.90;;;;;;4961711;28;20047;-64
2021/04/15 05:24:39;;;;;;;10.05;7.05;;;2.80;99.90;;;;;;4969861;28;20537;-64
2021/04/15 05:27:05;;;;;;;8.52;6.93;;;2.80;99.90;;;;;;4972101;28;20030;-64
2021/04/15 05:29:39;;;;;;;7.90;7.20;;;2.70;99.90;;;;;;4969039;28;20031;-64
2021/04/15 05:32:05;;;;;;;8.50;7.15;;;2.80;99.90;;;;;;4959423;28;20019;-63
2021/04/15 05:34:52;;;;;;;8.57;7.03;;;2.60;99.90;;;;;;4961635;28;20458;-64
2021/04/15 05:37:21;;;;;;;8.45;6.97;;;3.30;99.90;;;;;;4977144;28;20113;-65
2021/04/15 05:39:47;;;;;;;7.97;7.28;;;3.00;99.90;;;;;;4966578;28;20742;-65
2021/04/15 05:42:35;;;;;;;9.88;7.47;;;3.00;99.90;;;;;;4961214;28;20048;-65
2021/04/15 05:45:12;;;;;;;8.07;7.28;;;2.80;99.90;;;;;;4963356;28;20122;-65
2021/04/15 05:47:46;;;;;;;11.00;6.97;;;3.00;99.90;;;;;;4965130;28;20428;-63
2021/04/15 05:50:19;;;;;;;9.07;7.13;;;3.10;99.90;;;;;;4966546;28;20041;-63
2021/04/15 05:52:52;;;;;;;8.90;7.55;;;3.10;99.90;;;;;;4973862;28;20071;-62
2021/04/15 05:55:30;;;;;;;10.35;6.68;;;2.80;99.90;;;;;;4976775;28;20043;-62
2021/04/15 05:58:06;;;;;;;11.40;7.28;;;3.00;99.90;;;;;;4972330;28;20066;-62
2021/04/15 06:00:43;;;;;;;8.55;7.55;;;3.20;99.90;;;;;;4982144;28;20030;-63
2021/04/15 06:03:49;;;;;;;11.30;7.53;;;3.30;99.90;;;;;;4973154;28;20101;-62
2021/04/15 06:06:18;;;;;;;9.65;7.60;;;3.30;99.90;;;;;;4977789;28;20093;-62
2021/04/15 06:08:47;;;;;;;10.07;7.50;;;3.20;99.90;;;;;;4971852;28;20533;-62
2021/04/15 06:11:27;;;;;;;14.07;8.68;;;3.10;99.90;;;;;;4976192;28;20536;-62
2021/04/15 06:14:03;;;;;;;13.10;7.72;;;3.10;99.90;;;;;;4971952;28;20026;-62
2021/04/15 06:16:33;;;;;;;;;;;3.10;99.90;;;;;;4976898;28;20026;-62
2021/04/15 06:19:05;;;;;;;15.65;8.98;;;3.10;99.90;;;;;;4959234;28;19910;-62
2021/04/15 06:21:39;;;;;;;11.15;9.45;;;3.30;99.90;;;;;;4963190;28;20062;-63
2021/04/15 06:24:24;;;;;;;13.13;9.07;;;3.40;99.90;;;;;;4955045;28;20035;-62
2021/04/15 06:26:52;;;;;;;11.82;8.48;;;3.40;99.90;;;;;;4971656;28;20113;-62
2021/04/15 06:29:41;;;;;;;14.57;8.77;;;3.70;99.90;;;;;;4971744;28;20050;-62
2021/04/15 06:32:11;;;;;;;11.23;8.13;;;3.90;99.90;;;;;;4970907;28;20074;-63
2021/04/15 06:34:38;;;;;;;10.88;8.15;;;3.90;99.90;;;;;;4971788;28;20038;-63
2021/04/15 06:37:43;;;;;;;14.35;6.75;;;3.90;99.90;;;;;;4971564;28;20030;-62
2021/04/15 06:40:45;;;;;;;6.93;6.32;;;3.90;99.90;;;;;;4930791;29;20031;-62
2021/04/15 06:43:39;;;;;;;8.77;5.72;;;4.10;99.90;;;;;;4970922;28;20173;-63
2021/04/15 06:46:22;;;;;;;8.00;5.90;;;4.30;99.90;;;;;;4971788;28;20034;-61
2021/04/15 06:49:14;;;;;;;9.85;6.50;;;4.30;99.90;;;;;;4971844;28;20502;-64
2021/04/15 06:51:54;;;;;;;8.48;6.05;;;4.40;99.90;;;;;;4970531;28;20027;-62
2021/04/15 06:54:52;;;;;;;12.18;5.68;;;4.40;99.90;;;;;;4971696;28;20090;-61
2021/04/15 06:57:36;;;;;;;12.40;5.38;;;4.60;99.90;;;;;;4962626;28;20038;-61
2021/04/15 07:00:26;;;;;;;11.40;7.03;;;4.70;99.90;;;;;;4970926;28;20509;-62
2021/04/15 07:03:07;;;;;;;9.98;6.40;;;4.60;99.90;;;;;;4971577;28;20026;-62
2021/04/15 07:05:51;;;;;;;15.40;6.57;;;4.60;99.90;;;;;;4969374;28;20555;-62
2021/04/15 07:08:48;;;;;;;10.55;6.28;;;4.60;99.90;;;;;;4952276;28;20113;-61
2021/04/15 07:11:42;;;;;;;11.18;6.53;;;4.80;99.90;;;;;;4952149;28;20062;-62
2021/04/15 07:14:18;;;;;;;13.18;6.35;;;5.10;99.90;;;;;;4951770;28;20070;-62
2021/04/15 07:17:10;;;;;;;8.48;6.65;;;5.00;99.90;;;;;;4969971;28;20049;-61
2021/04/15 07:19:45;;;;;;;9.05;6.35;;;5.00;99.90;;;;;;4973092;28;20031;-62
2021/04/15 07:22:48;;;;;;;11.10;6.63;;;5.40;99.90;;;;;;4969835;28;20426;-64
2021/04/15 07:25:35;;;;;;;9.73;6.97;;;5.40;99.90;;;;;;4970757;28;20102;-63
2021/04/15 07:28:05;;;;;;;17.80;7.88;;;5.60;99.90;;;;;;4971138;28;20031;-63
2021/04/15 07:30:51;;;;;;;21.15;8.35;;;5.50;99.90;;;;;;4970661;28;20519;-63
2021/04/15 07:33:48;;;;;;;26.73;8.73;;;5.60;99.90;;;;;;4970914;28;20112;-63
2021/04/15 07:36:35;;;;;;;27.63;8.30;;;5.80;99.90;;;;;;4966607;28;20046;-62
2021/04/15 07:39:21;;;;;;;28.00;7.75;;;6.10;99.90;;;;;;4951831;28;20039;-62
2021/04/15 07:42:16;;;;;;;26.42;8.20;;;6.10;99.90;;;;;;4951433;28;20028;-64
2021/04/15 07:44:55;;;;;;;22.08;8.25;;;6.10;99.90;;;;;;4951770;28;20031;-62
2021/04/15 07:47:46;;;;;;;17.10;8.23;;;6.30;99.90;;;;;;4951440;28;20022;-62
2021/04/15 07:50:51;;;;;;;17.95;8.77;;;6.50;99.90;;;;;;4951431;28;20027;-65
2021/04/15 07:53:20;;;;;;;27.33;8.95;;;6.90;99.90;;;;;;4962758;28;20511;-63
2021/04/15 07:56:00;;;;;;;28.92;8.75;;;6.90;99.90;;;;;;4958831;28;20098;-63
2021/04/15 07:58:49;;;;;;;34.28;9.32;;;6.90;99.90;;;;;;4970751;28;20042;-63
2021/04/15 08:01:17;;;;;;;21.52;9.07;;;7.00;99.90;;;;;;4970068;28;20014;-63
2021/04/15 08:04:04;;;;;;;26.13;8.05;;;7.40;99.90;;;;;;4970538;28;20525;-62
2021/04/15 08:06:58;;;;;;;43.92;9.18;;;7.50;99.90;;;;;;4970112;28;20031;-62
2021/04/15 08:09:33;;;;;;;33.92;9.10;;;7.40;99.90;;;;;;4970716;28;20023;-62
2021/04/15 08:12:17;;;;;;;37.97;9.68;;;7.60;99.90;;;;;;4970754;28;20027;-62
2021/04/15 08:15:02;;;;;;;19.98;8.95;;;8.00;99.90;;;;;;4970613;28;20039;-62
2021/04/15 08:17:46;;;;;;;33.38;9.40;;;7.90;99.90;;;;;;4970410;28;20423;-61
2021/04/15 08:20:28;;;;;;;35.92;8.82;;;8.10;99.90;;;;;;4970335;28;20081;-61
2021/04/15 08:23:09;;;;;;;13.45;6.85;;;8.20;99.90;;;;;;4970287;28;20130;-61
2021/04/15 08:25:49;;;;;;;16.50;7.18;;;8.70;99.90;;;;;;4967190;28;20513;-67
2021/04/15 08:28:50;;;;;;;20.90;7.50;;;8.60;99.90;;;;;;4950971;29;20086;-63
2021/04/15 08:31:31;;;;;;;17.60;8.63;;;8.40;99.90;;;;;;4950744;28;20503;-63
2021/04/15 08:34:00;;;;;;;40.47;9.18;;;8.50;99.90;;;;;;4965913;28;20449;-63
2021/04/15 08:36:37;;;;;;;16.35;8.05;;;9.00;99.90;;;;;;4969192;28;20034;-63
2021/04/15 08:39:18;;;;;;;18.23;8.25;;;9.10;99.90;;;;;;4970318;28;20495;-62
2021/04/15 08:41:55;;;;;;;24.27;8.05;;;9.00;99.90;;;;;;4970712;28;20033;-62
2021/04/15 08:44:21;;;;;;;13.70;7.25;;;8.90;99.90;;;;;;4974077;28;20030;-63
2021/04/15 08:47:08;;;;;;;19.85;7.03;;;8.90;99.90;;;;;;4973819;28;20030;-62
2021/04/15 08:49:55;;;;;;;26.90;7.90;;;8.90;99.90;;;;;;4973825;28;20026;-62
2021/04/15 08:52:41;;;;;;;34.85;8.80;;;9.00;99.90;;;;;;4973475;28;20054;-62
2021/04/15 08:55:14;;;;;;;22.77;8.05;;;9.20;99.90;;;;;;4973541;28;20034;-62
2021/04/15 08:58:07;;;;;;;21.63;7.68;;;9.20;99.90;;;;;;4973641;28;20555;-62
2021/04/15 09:00:32;;;;;;;27.83;8.48;;;9.90;99.90;;;;;;4962269;28;20455;-62
2021/04/15 09:03:31;;;;;;;19.95;7.38;;;10.10;99.90;;;;;;4963711;28;20033;-62
2021/04/15 09:06:16;;;;;;;15.18;8.25;;;10.10;99.90;;;;;;4953171;28;20171;-62
2021/04/15 09:08:51;;;;;;;14.48;8.07;;;10.20;99.90;;;;;;4954204;28;20034;-62
2021/04/15 09:12:00;;;;;;;13.77;7.93;;;10.30;99.90;;;;;;4954033;28;20032;-52
2021/04/15 09:14:41;;;;;;;26.05;8.27;;;10.20;99.90;;;;;;4953666;28;20032;-62
2021/04/15 09:17:33;;;;;;;19.75;9.05;;;10.40;99.90;;;;;;4954028;28;20559;-62
2021/04/15 09:19:58;;;;;;;15.32;8.27;;;10.50;99.90;;;;;;4946050;29;20086;-62
2021/04/15 09:22:42;;;;;;;16.42;8.70;;;10.80;99.90;;;;;;4952383;28;20055;-62
2021/04/15 09:25:43;;;;;;;19.45;8.48;;;11.10;99.90;;;;;;4953869;28;20031;-63
2021/04/15 09:28:22;;;;;;;19.88;8.73;;;11.30;99.90;;;;;;4903759;28;20045;-63
2021/04/15 09:31:10;;;;;;;11.00;7.68;;;10.90;99.90;;;;;;4953734;28;20079;-63
2021/04/15 09:33:54;;;;;;;10.82;8.05;;;11.50;99.90;;;;;;4953609;28;20035;-65
2021/04/15 09:36:48;;;;;;;30.73;8.90;;;11.50;99.90;;;;;;4952593;29;20031;-62
2021/04/15 09:39:23;;;;;;;13.23;7.97;;;11.50;99.90;;;;;;4953665;28;20038;-63
2021/04/15 09:41:56;;;;;;;16.08;7.88;;;11.80;99.90;;;;;;4953679;28;20077;-63
2021/04/15 09:44:44;;;;;;;30.13;8.65;;;12.20;99.90;;;;;;4953593;28;20051;-63
2021/04/15 09:47:31;;;;;;;17.27;8.52;;;12.20;99.90;;;;;;4953342;29;20030;-62
2021/04/15 09:50:01;;;;;;;16.70;7.55;;;12.00;99.90;;;;;;4953497;28;20031;-62
2021/04/15 09:52:48;;;;;;;20.13;7.63;;;12.40;99.90;;;;;;4953090;28;20027;-62
2021/04/15 09:55:47;;;;;;;21.27;8.48;;;12.20;99.90;;;;;;4953150;29;20114;-62
2021/04/15 09:58:37;;;;;;;9.48;6.78;;;12.70;99.90;;;;;;4953299;28;20040;-62
2021/04/15 10:01:23;;;;;;;8.13;6.72;;;12.90;99.90;;;;;;4953037;28;20026;-62
2021/04/15 10:04:11;;;;;;;12.65;6.93;;;12.60;99.90;;;;;;4951790;28;20023;-62
2021/04/15 10:06:53;;;;;;;10.27;6.55;;;12.50;99.40;;;;;;4951989;29;20042;-62
2021/04/15 10:09:30;;;;;;;8.05;6.85;;;13.30;99.90;;;;;;4953205;28;20019;-63
2021/04/15 10:12:30;;;;;;;10.70;7.57;;;13.30;99.40;;;;;;4953062;29;20027;-63
2021/04/15 10:15:25;;;;;;;10.82;6.75;;;13.10;98.10;;;;;;4952890;29;20031;-62
2021/04/15 10:17:54;;;;;;;13.02;6.72;;;13.10;98.50;;;;;;4952858;28;20043;-63
2021/04/15 10:20:35;;;;;;;9.52;6.88;;;13.40;98.40;;;;;;4952288;29;20034;-63
2021/04/15 10:23:26;;;;;;;14.00;7.20;;;13.40;97.40;;;;;;4952653;28;20047;-62
2021/04/15 10:25:57;;;;;;;12.48;8.00;;;13.60;97.40;;;;;;4951719;28;20441;-63
2021/04/15 10:28:40;;;;;;;7.13;6.43;;;13.80;97.10;;;;;;4952891;28;20043;-63
2021/04/15 10:31:33;;;;;;;7.88;7.15;;;14.10;97.10;;;;;;4952416;28;20034;-63
2021/04/15 10:34:29;;;;;;;9.93;6.13;;;13.80;96.60;;;;;;4952722;29;20031;-63
2021/04/15 10:37:22;;;;;;;8.53;6.27;;;14.30;96.50;;;;;;4951616;29;20027;-64
2021/04/15 10:40:09;;;;;;;7.32;5.93;;;14.50;95.30;;;;;;4952452;29;20039;-62
2021/04/15 10:42:44;;;;;;;8.32;5.97;;;14.60;97.50;;;;;;4952376;28;20027;-62
2021/04/15 10:45:27;;;;;;;16.20;6.82;;;14.30;94.70;;;;;;4951311;28;20074;-61
2021/04/15 10:48:30;;;;;;;10.38;5.43;;;14.90;95.60;;;;;;4947896;28;20418;-62
2021/04/15 10:51:11;;;;;;;8.75;6.20;;;15.40;95.90;;;;;;4963474;28;20019;-62
2021/04/15 10:53:56;;;;;;;15.00;6.15;;;15.60;94.20;;;;;;4962970;28;20051;-62
2021/04/15 10:56:27;;;;;;;6.90;6.20;;;14.80;92.80;;;;;;4961881;28;20074;-62
2021/04/15 10:59:01;;;;;;;11.52;6.13;;;14.90;94.60;;;;;;4959134;28;20098;-62
2021/04/15 11:01:34;;;;;;;11.43;7.10;;;15.50;94.20;;;;;;4951899;29;20130;-62
2021/04/15 11:04:10;;;;;;;10.05;6.25;;;15.40;93.20;;;;;;4966179;28;20023;-62
2021/04/15 11:06:56;;;;;;;8.57;6.40;;;15.60;93.10;;;;;;4970319;28;20618;-62
2021/04/15 11:09:28;;;;;;;7.13;6.15;;;15.40;92.70;;;;;;4971242;28;20622;-63
2021/04/15 11:12:11;;;;;;;6.93;5.85;;;15.20;92.50;;;;;;4969867;28;20031;-62
2021/04/15 11:14:58;;;;;;;6.93;6.22;;;15.70;92.10;;;;;;4970984;28;20058;-63
2021/04/15 11:17:33;;;;;;;7.72;6.93;;;15.70;92.30;;;;;;4963341;28;20170;-62
2021/04/15 11:20:18;;;;;;;6.38;5.68;;;15.90;91.50;;;;;;4969458;28;20038;-63
2021/04/15 11:22:58;;;;;;;16.45;6.47;;;15.80;90.80;;;;;;4971994;28;20422;-64
2021/04/15 11:25:23;;;;;;;25.92;6.35;;;15.90;90.40;;;;;;4970676;28;20117;-64
2021/04/15 11:27:50;;;;;;;6.80;6.20;;;16.50;91.60;;;;;;4970920;28;20439;-64
2021/04/15 11:30:49;;;;;;;6.60;5.55;;;16.50;90.90;;;;;;4959421;28;20525;-64
2021/04/15 11:33:52;;;;;;;17.10;5.93;;;17.00;90.50;;;;;;4961245;28;20605;-64
2021/04/15 11:36:39;;;;;;;7.10;6.43;;;17.00;90.50;;;;;;4946027;28;20043;-64
2021/04/15 11:39:05;;;;;;;7.22;6.28;;;17.10;89.50;;;;;;4959504;28;20038;-64
2021/04/15 11:41:56;;;;;;;8.52;5.53;;;17.20;89.80;;;;;;4961569;28;20110;-64
2021/04/15 11:44:37;;;;;;;7.85;5.93;;;16.80;90.00;;;;;;4960098;28;20495;-64
2021/04/15 11:47:12;;;;;;;14.82;5.03;;;17.00;89.30;;;;;;4951479;28;20046;-64
2021/04/15 11:49:45;;;;;;;8.35;4.90;;;17.50;88.60;;;;;;4951719;28;20026;-64
2021/04/15 11:52:31;;;;;;;5.95;5.03;;;17.20;89.80;;;;;;4950572;28;20038;-64
2021/04/15 11:54:57;;;;;;;8.18;5.00;;;17.10;88.30;;;;;;4951486;29;20039;-64
2021/04/15 11:57:27;;;;;;;5.82;4.28;;;17.30;86.00;;;;;;4954137;28;20027;-64
2021/04/15 11:59:56;;;;;;;12.35;5.20;;;17.20;86.40;;;;;;4970045;28;20047;-63
2021/04/15 12:02:31;;;;;;;5.18;4.68;;;18.50;90.10;;;;;;4969321;28;20130;-64
2021/04/15 12:05:14;;;;;;;6.70;4.93;;;18.50;86.30;;;;;;4970655;28;20070;-63
2021/04/15 12:07:45;;;;;;;9.68;4.63;;;18.50;89.00;;;;;;4970576;28;20053;-63
2021/04/15 12:10:12;;;;;;;4.47;3.78;;;18.20;82.90;;;;;;4970733;28;20031;-65
2021/04/15 12:12:42;;;;;;;5.47;4.10;;;18.20;83.40;;;;;;4970861;28;20035;-64
2021/04/15 12:15:12;;;;;;;23.63;4.93;;;17.40;81.20;;;;;;4970343;28;20058;-65
2021/04/15 12:17:44;;;;;;;48.83;5.50;;;18.20;83.20;;;;;;4972885;28;20023;-64
2021/04/15 12:20:35;;;;;;;13.52;4.30;;;18.50;82.80;;;;;;4974071;28;20038;-64
2021/04/15 12:23:28;;;;;;;70.38;6.70;;;18.60;81.10;;;;;;4974166;28;20042;-64
2021/04/15 12:26:04;;;;;;;26.50;4.78;;;19.00;79.40;;;;;;4974322;28;20027;-64
2021/04/15 12:28:50;;;;;;;18.65;4.63;;;19.20;81.00;;;;;;4968644;28;20034;-66
2021/04/15 12:31:22;;;;;;;32.78;5.05;;;19.10;78.70;;;;;;4965196;28;20495;-65
2021/04/15 12:34:06;;;;;;;31.38;5.60;;;19.30;78.50;;;;;;4961482;28;20030;-67
2021/04/15 12:36:38;;;;;;;20.65;4.00;;;18.40;79.60;;;;;;4963984;28;20439;-64
2021/04/15 12:39:13;;;;;;;10.52;3.17;;;19.10;81.80;;;;;;4957103;28;20023;-64
2021/04/15 12:41:39;;;;;;;4.57;2.75;;;19.30;77.10;;;;;;4960094;28;20027;-65
2021/04/15 12:44:20;;;;;;;5.05;3.92;;;19.70;78.70;;;;;;4964205;28;20388;-67
2021/04/15 12:46:47;;;;;;;2.88;2.60;;;19.30;76.10;;;;;;4963959;28;20057;-63
2021/04/15 12:49:17;;;;;;;3.67;3.38;;;19.60;80.40;;;;;;4963380;28;20023;-67
2021/04/15 12:51:49;;;;;;;8.60;3.20;;;19.30;76.50;;;;;;4964312;28;20065;-64
2021/04/15 12:54:22;;;;;;;4.65;3.30;;;19.50;77.80;;;;;;4970909;28;20038;-64
2021/04/15 12:57:02;;;;;;;3.53;2.90;;;18.90;81.40;;;;;;4973536;28;20122;-65
2021/04/15 12:59:28;;;;;;;3.25;2.88;;;19.90;77.50;;;;;;4973554;28;20086;-66
2021/04/15 13:01:55;;;;;;;20.42;4.35;;;19.60;74.20;;;;;;4973469;28;20023;-66
2021/04/15 13:04:29;;;;;;;15.10;3.95;;;19.40;75.50;;;;;;4965455;28;20367;-64
2021/04/15 13:07:01;;;;;;;24.63;4.07;;;20.10;75.10;;;;;;4953623;28;20030;-65
2021/04/15 13:09:28;;;;;;;15.95;3.05;;;20.20;75.00;;;;;;4953920;28;20023;-64
2021/04/15 13:11:55;;;;;;;19.20;3.38;;;20.40;76.00;;;;;;4954193;28;20054;-64
2021/04/15 13:14:55;;;;;;;16.02;3.50;;;20.70;77.70;;;;;;4954167;28;20504;-65
2021/04/15 13:17:36;;;;;;;5.38;3.20;;;20.30;72.50;;;;;;4930900;29;20534;-63
2021/04/15 13:20:20;;;;;;;22.08;3.63;;;20.60;75.40;;;;;;4954227;28;20046;-63
2021/04/15 13:22:54;;;;;;;5.90;2.85;;;20.30;74.90;;;;;;4953208;29;20525;-63
2021/04/15 13:25:29;;;;;;;2.80;2.60;;;20.10;72.80;;;;;;4953889;28;20063;-63
2021/04/15 13:28:00;;;;;;;3.97;2.88;;;19.20;72.70;;;;;;4952715;28;20031;-65
2021/04/15 13:30:31;;;;;;;6.57;3.33;;;19.60;71.90;;;;;;4953391;28;20046;-63
2021/04/15 13:33:17;;;;;;;6.15;3.25;;;19.80;71.30;;;;;;4953569;28;20023;-63
2021/04/15 13:35:44;;;;;;;12.67;3.87;;;20.10;71.50;;;;;;4953429;28;20043;-64
2021/04/15 13:38:35;;;;;;;51.80;6.07;;;20.90;73.20;;;;;;4964068;28;20571;-64
2021/04/15 13:41:29;;;;;;;19.90;4.40;;;21.00;71.20;;;;;;4963228;28;20403;-64
2021/04/15 13:44:03;;;;;;;3.40;3.00;;;21.20;73.50;;;;;;4955710;28;20503;-67
2021/04/15 13:46:34;;;;;;;5.05;3.05;;;20.70;66.60;;;;;;4963129;28;20022;-64
2021/04/15 13:49:11;;;;;;;3.33;2.92;;;20.20;67.90;;;;;;4963915;28;20030;-64